sensor_id;sensor_type;location;lat;lon;timestamp;P1;durP1;ratioP1;P2;durP2;ratioP2
75358;SDS011;64046;51.978;5.934;2023-09-12T00:00:24;30.17;;;18.98;;
75358;SDS011;64046;51.978;5.934;2023-09-12T00:02:59;32.35;;;19.92;;
75358;SDS011;64046;51.978;5.934;2023-09-12T00:05:36;29.40;;;19.30;;
75358;SDS011;64046;51.978;5.934;2023-09-12T00:08:07;29.70;;;20.20;;
75358;SDS011;64046;51.978;5.934;2023-09-12T00:10:42;29.65;;;20.33;;
75358;SDS011;64046;51.978;5.934;2023-09-12T00:13:12;26.38;;;19.55;;
75358;SDS011;64046;51.978;5.934;2023-09-12T00:15:49;35.63;;;22.92;;
75358;SDS011;64046;51.978;5.934;2023-09-12T00:18:24;32.08;;;21.85;;
75358;SDS011;64046;51.978;5.934;2023-09-12T00:20:56;33.03;;;21.67;;
75358;SDS011;64046;51.978;5.934;2023-09-12T00:23:28;31.52;;;20.45;;
75358;SDS011;64046;51.978;5.934;2023-09-12T00:26:00;27.70;;;20.20;;
75358;SDS011;64046;51.978;5.934;2023-09-12T00:28:34;30.98;;;20.98;;
75358;SDS011;64046;51.978;5.934;2023-09-12T00:31:07;30.92;;;20.23;;
75358;SDS011;64046;51.978;5.934;2023-09-12T00:33:37;24.25;;;18.13;;
75358;SDS011;64046;51.978;5.934;2023-09-12T00:36:08;25.60;;;17.27;;
75358;SDS011;64046;51.978;5.934;2023-09-12T00:38:38;29.00;;;19.75;;
75358;SDS011;64046;51.978;5.934;2023-09-12T00:41:16;29.15;;;20.80;;
75358;SDS011;64046;51.978;5.934;2023-09-12T00:43:47;21.35;;;15.35;;
75358;SDS011;64046;51.978;5.934;2023-09-12T00:46:18;19.70;;;13.50;;
75358;SDS011;64046;51.978;5.934;2023-09-12T00:48:52;21.48;;;16.73;;
75358;SDS011;64046;51.978;5.934;2023-09-12T00:51:25;29.45;;;17.25;;
75358;SDS011;64046;51.978;5.934;2023-09-12T00:53:58;30.05;;;19.48;;
75358;SDS011;64046;51.978;5.934;2023-09-12T00:56:30;27.00;;;18.17;;
75358;SDS011;64046;51.978;5.934;2023-09-12T00:59:03;30.20;;;20.27;;
75358;SDS011;64046;51.978;5.934;2023-09-12T01:01:37;29.00;;;20.67;;
75358;SDS011;64046;51.978;5.934;2023-09-12T01:04:08;34.13;;;21.92;;
75358;SDS011;64046;51.978;5.934;2023-09-12T01:06:43;31.27;;;19.52;;
75358;SDS011;64046;51.978;5.934;2023-09-12T01:09:16;35.08;;;21.63;;
75358;SDS011;64046;51.978;5.934;2023-09-12T01:11:52;25.17;;;17.70;;
75358;SDS011;64046;51.978;5.934;2023-09-12T01:14:23;20.95;;;13.48;;
75358;SDS011;64046;51.978;5.934;2023-09-12T01:16:53;24.02;;;16.90;;
75358;SDS011;64046;51.978;5.934;2023-09-12T01:19:22;30.70;;;19.42;;
75358;SDS011;64046;51.978;5.934;2023-09-12T01:28:07;28.20;;;17.65;;
75358;SDS011;64046;51.978;5.934;2023-09-12T01:30:42;19.13;;;12.90;;
75358;SDS011;64046;51.978;5.934;2023-09-12T01:33:20;17.60;;;12.23;;
75358;SDS011;64046;51.978;5.934;2023-09-12T01:35:53;24.48;;;16.27;;
75358;SDS011;64046;51.978;5.934;2023-09-12T01:38:25;24.77;;;17.75;;
75358;SDS011;64046;51.978;5.934;2023-09-12T01:40:56;26.95;;;19.65;;
75358;SDS011;64046;51.978;5.934;2023-09-12T01:43:28;28.98;;;20.08;;
75358;SDS011;64046;51.978;5.934;2023-09-12T01:46:00;30.80;;;21.15;;
75358;SDS011;64046;51.978;5.934;2023-09-12T01:48:38;31.05;;;20.20;;
75358;SDS011;64046;51.978;5.934;2023-09-12T01:51:14;28.92;;;20.08;;
75358;SDS011;64046;51.978;5.934;2023-09-12T01:53:55;31.27;;;20.63;;
75358;SDS011;64046;51.978;5.934;2023-09-12T01:56:29;31.70;;;20.55;;
75358;SDS011;64046;51.978;5.934;2023-09-12T01:59:04;29.98;;;19.90;;
75358;SDS011;64046;51.978;5.934;2023-09-12T02:01:34;29.38;;;19.98;;
75358;SDS011;64046;51.978;5.934;2023-09-12T02:04:08;26.17;;;16.75;;
75358;SDS011;64046;51.978;5.934;2023-09-12T02:06:40;25.92;;;18.25;;
75358;SDS011;64046;51.978;5.934;2023-09-12T02:09:14;28.20;;;17.80;;
75358;SDS011;64046;51.978;5.934;2023-09-12T02:14:21;30.80;;;20.65;;
75358;SDS011;64046;51.978;5.934;2023-09-12T02:16:54;26.35;;;18.92;;
75358;SDS011;64046;51.978;5.934;2023-09-12T02:19:23;26.17;;;18.67;;
75358;SDS011;64046;51.978;5.934;2023-09-12T02:21:54;23.67;;;15.77;;
75358;SDS011;64046;51.978;5.934;2023-09-12T02:24:26;17.33;;;11.77;;
75358;SDS011;64046;51.978;5.934;2023-09-12T02:26:59;26.42;;;17.25;;
75358;SDS011;64046;51.978;5.934;2023-09-12T02:29:31;20.17;;;13.25;;
75358;SDS011;64046;51.978;5.934;2023-09-12T02:32:00;25.73;;;17.00;;
75358;SDS011;64046;51.978;5.934;2023-09-12T02:34:30;23.95;;;15.60;;
75358;SDS011;64046;51.978;5.934;2023-09-12T02:37:00;16.40;;;10.75;;
75358;SDS011;64046;51.978;5.934;2023-09-12T02:39:30;15.70;;;10.15;;
75358;SDS011;64046;51.978;5.934;2023-09-12T02:42:01;12.77;;;9.27;;
75358;SDS011;64046;51.978;5.934;2023-09-12T02:44:38;15.48;;;10.57;;
75358;SDS011;64046;51.978;5.934;2023-09-12T02:47:07;14.48;;;10.70;;
75358;SDS011;64046;51.978;5.934;2023-09-12T02:49:39;20.35;;;14.77;;
75358;SDS011;64046;51.978;5.934;2023-09-12T02:52:12;20.83;;;12.70;;
75358;SDS011;64046;51.978;5.934;2023-09-12T02:54:41;13.85;;;9.98;;
75358;SDS011;64046;51.978;5.934;2023-09-12T02:57:13;10.20;;;7.05;;
75358;SDS011;64046;51.978;5.934;2023-09-12T02:59:50;13.05;;;9.27;;
75358;SDS011;64046;51.978;5.934;2023-09-12T03:02:22;15.65;;;10.55;;
75358;SDS011;64046;51.978;5.934;2023-09-12T03:04:57;26.50;;;15.75;;
75358;SDS011;64046;51.978;5.934;2023-09-12T03:07:28;20.33;;;14.25;;
75358;SDS011;64046;51.978;5.934;2023-09-12T03:10:01;16.90;;;10.73;;
75358;SDS011;64046;51.978;5.934;2023-09-12T03:12:35;16.30;;;10.90;;
75358;SDS011;64046;51.978;5.934;2023-09-12T03:15:11;20.40;;;13.60;;
75358;SDS011;64046;51.978;5.934;2023-09-12T03:17:41;15.45;;;10.85;;
75358;SDS011;64046;51.978;5.934;2023-09-12T03:20:21;19.20;;;14.38;;
75358;SDS011;64046;51.978;5.934;2023-09-12T03:23:02;18.80;;;14.50;;
75358;SDS011;64046;51.978;5.934;2023-09-12T03:25:35;21.00;;;12.32;;
75358;SDS011;64046;51.978;5.934;2023-09-12T03:28:06;19.35;;;15.32;;
75358;SDS011;64046;51.978;5.934;2023-09-12T03:30:42;25.92;;;15.77;;
75358;SDS011;64046;51.978;5.934;2023-09-12T03:33:12;20.67;;;14.70;;
75358;SDS011;64046;51.978;5.934;2023-09-12T03:35:45;20.52;;;15.55;;
75358;SDS011;64046;51.978;5.934;2023-09-12T03:38:15;26.08;;;16.35;;
75358;SDS011;64046;51.978;5.934;2023-09-12T03:40:44;23.52;;;17.30;;
75358;SDS011;64046;51.978;5.934;2023-09-12T03:43:15;22.40;;;16.35;;
75358;SDS011;64046;51.978;5.934;2023-09-12T03:45:48;25.25;;;15.95;;
75358;SDS011;64046;51.978;5.934;2023-09-12T03:48:24;21.90;;;15.57;;
75358;SDS011;64046;51.978;5.934;2023-09-12T03:50:56;23.20;;;15.35;;
75358;SDS011;64046;51.978;5.934;2023-09-12T03:53:27;28.08;;;17.60;;
75358;SDS011;64046;51.978;5.934;2023-09-12T03:55:57;25.50;;;17.80;;
75358;SDS011;64046;51.978;5.934;2023-09-12T03:58:28;22.33;;;14.20;;
75358;SDS011;64046;51.978;5.934;2023-09-12T04:01:02;17.88;;;11.50;;
75358;SDS011;64046;51.978;5.934;2023-09-12T04:03:44;14.02;;;10.32;;
75358;SDS011;64046;51.978;5.934;2023-09-12T04:06:19;14.40;;;9.20;;
75358;SDS011;64046;51.978;5.934;2023-09-12T04:08:50;26.88;;;16.13;;
75358;SDS011;64046;51.978;5.934;2023-09-12T04:11:24;25.45;;;17.30;;
75358;SDS011;64046;51.978;5.934;2023-09-12T04:13:55;29.13;;;17.85;;
75358;SDS011;64046;51.978;5.934;2023-09-12T04:16:27;27.90;;;18.88;;
75358;SDS011;64046;51.978;5.934;2023-09-12T04:19:00;31.35;;;19.65;;
75358;SDS011;64046;51.978;5.934;2023-09-12T04:21:31;29.92;;;19.02;;
75358;SDS011;64046;51.978;5.934;2023-09-12T04:24:01;23.40;;;15.82;;
75358;SDS011;64046;51.978;5.934;2023-09-12T04:26:32;24.10;;;15.32;;
75358;SDS011;64046;51.978;5.934;2023-09-12T04:29:08;25.50;;;15.93;;
75358;SDS011;64046;51.978;5.934;2023-09-12T04:31:43;29.20;;;17.42;;
75358;SDS011;64046;51.978;5.934;2023-09-12T04:34:13;21.38;;;12.57;;
75358;SDS011;64046;51.978;5.934;2023-09-12T04:36:42;24.17;;;14.63;;
75358;SDS011;64046;51.978;5.934;2023-09-12T04:39:15;30.33;;;18.23;;
75358;SDS011;64046;51.978;5.934;2023-09-12T04:41:48;18.73;;;10.43;;
75358;SDS011;64046;51.978;5.934;2023-09-12T04:44:19;20.00;;;9.80;;
75358;SDS011;64046;51.978;5.934;2023-09-12T04:46:51;22.95;;;14.18;;
75358;SDS011;64046;51.978;5.934;2023-09-12T04:49:23;17.55;;;10.57;;
75358;SDS011;64046;51.978;5.934;2023-09-12T04:51:53;16.27;;;11.05;;
75358;SDS011;64046;51.978;5.934;2023-09-12T04:54:23;18.20;;;11.18;;
75358;SDS011;64046;51.978;5.934;2023-09-12T04:56:56;24.77;;;16.65;;
75358;SDS011;64046;51.978;5.934;2023-09-12T04:59:28;35.10;;;21.98;;
75358;SDS011;64046;51.978;5.934;2023-09-12T05:02:00;31.00;;;19.88;;
75358;SDS011;64046;51.978;5.934;2023-09-12T05:04:34;41.45;;;24.05;;
75358;SDS011;64046;51.978;5.934;2023-09-12T05:07:06;22.00;;;15.20;;
75358;SDS011;64046;51.978;5.934;2023-09-12T05:09:40;27.65;;;16.10;;
75358;SDS011;64046;51.978;5.934;2023-09-12T05:12:10;41.72;;;25.02;;
75358;SDS011;64046;51.978;5.934;2023-09-12T05:14:50;44.33;;;25.27;;
75358;SDS011;64046;51.978;5.934;2023-09-12T05:17:27;24.98;;;15.13;;
75358;SDS011;64046;51.978;5.934;2023-09-12T05:19:56;31.48;;;17.83;;
75358;SDS011;64046;51.978;5.934;2023-09-12T05:22:27;28.58;;;17.55;;
75358;SDS011;64046;51.978;5.934;2023-09-12T05:24:59;29.23;;;17.17;;
75358;SDS011;64046;51.978;5.934;2023-09-12T05:27:29;24.13;;;14.60;;
75358;SDS011;64046;51.978;5.934;2023-09-12T05:30:01;44.20;;;25.30;;
75358;SDS011;64046;51.978;5.934;2023-09-12T05:32:33;30.20;;;17.80;;
75358;SDS011;64046;51.978;5.934;2023-09-12T05:35:03;25.60;;;15.25;;
75358;SDS011;64046;51.978;5.934;2023-09-12T05:37:34;29.88;;;17.30;;
75358;SDS011;64046;51.978;5.934;2023-09-12T05:40:09;25.48;;;13.45;;
75358;SDS011;64046;51.978;5.934;2023-09-12T05:42:42;21.75;;;13.57;;
75358;SDS011;64046;51.978;5.934;2023-09-12T05:45:13;23.95;;;14.30;;
75358;SDS011;64046;51.978;5.934;2023-09-12T05:47:45;26.67;;;14.88;;
75358;SDS011;64046;51.978;5.934;2023-09-12T05:50:17;30.55;;;18.48;;
75358;SDS011;64046;51.978;5.934;2023-09-12T05:52:48;28.33;;;19.08;;
75358;SDS011;64046;51.978;5.934;2023-09-12T05:55:20;31.02;;;18.55;;
75358;SDS011;64046;51.978;5.934;2023-09-12T05:57:51;35.25;;;20.20;;
75358;SDS011;64046;51.978;5.934;2023-09-12T06:00:22;29.55;;;19.08;;
75358;SDS011;64046;51.978;5.934;2023-09-12T06:02:55;30.80;;;18.95;;
75358;SDS011;64046;51.978;5.934;2023-09-12T06:05:27;31.25;;;18.38;;
75358;SDS011;64046;51.978;5.934;2023-09-12T06:07:58;26.05;;;16.08;;
75358;SDS011;64046;51.978;5.934;2023-09-12T06:10:30;20.92;;;13.80;;
75358;SDS011;64046;51.978;5.934;2023-09-12T06:12:59;26.23;;;16.85;;
75358;SDS011;64046;51.978;5.934;2023-09-12T06:15:29;30.27;;;18.55;;
75358;SDS011;64046;51.978;5.934;2023-09-12T06:18:02;28.73;;;18.45;;
75358;SDS011;64046;51.978;5.934;2023-09-12T06:20:32;39.90;;;26.75;;
75358;SDS011;64046;51.978;5.934;2023-09-12T06:23:02;25.60;;;17.90;;
75358;SDS011;64046;51.978;5.934;2023-09-12T06:25:36;46.03;;;27.63;;
75358;SDS011;64046;51.978;5.934;2023-09-12T06:28:05;36.97;;;24.05;;
75358;SDS011;64046;51.978;5.934;2023-09-12T06:30:40;28.13;;;16.92;;
75358;SDS011;64046;51.978;5.934;2023-09-12T06:33:12;46.63;;;28.90;;
75358;SDS011;64046;51.978;5.934;2023-09-12T06:35:42;53.50;;;30.35;;
75358;SDS011;64046;51.978;5.934;2023-09-12T06:38:17;48.22;;;28.05;;
75358;SDS011;64046;51.978;5.934;2023-09-12T06:40:49;48.38;;;28.15;;
75358;SDS011;64046;51.978;5.934;2023-09-12T06:43:30;60.80;;;33.38;;
75358;SDS011;64046;51.978;5.934;2023-09-12T06:46:01;41.90;;;24.05;;
75358;SDS011;64046;51.978;5.934;2023-09-12T06:48:33;59.03;;;31.15;;
75358;SDS011;64046;51.978;5.934;2023-09-12T06:51:04;44.45;;;26.30;;
75358;SDS011;64046;51.978;5.934;2023-09-12T06:53:38;53.45;;;30.13;;
75358;SDS011;64046;51.978;5.934;2023-09-12T06:56:08;36.45;;;22.65;;
75358;SDS011;64046;51.978;5.934;2023-09-12T06:58:37;27.25;;;16.08;;
75358;SDS011;64046;51.978;5.934;2023-09-12T07:01:07;34.20;;;18.20;;
75358;SDS011;64046;51.978;5.934;2023-09-12T07:03:39;38.40;;;21.10;;
75358;SDS011;64046;51.978;5.934;2023-09-12T07:06:10;31.25;;;19.30;;
75358;SDS011;64046;51.978;5.934;2023-09-12T07:08:40;34.63;;;21.35;;
75358;SDS011;64046;51.978;5.934;2023-09-12T07:11:10;47.80;;;28.15;;
75358;SDS011;64046;51.978;5.934;2023-09-12T07:13:42;27.02;;;17.77;;
75358;SDS011;64046;51.978;5.934;2023-09-12T07:16:34;27.40;;;16.63;;
75358;SDS011;64046;51.978;5.934;2023-09-12T07:19:08;33.22;;;21.10;;
75358;SDS011;64046;51.978;5.934;2023-09-12T07:21:43;25.50;;;15.25;;
75358;SDS011;64046;51.978;5.934;2023-09-12T07:24:14;46.17;;;27.85;;
75358;SDS011;64046;51.978;5.934;2023-09-12T07:26:45;31.02;;;20.00;;
75358;SDS011;64046;51.978;5.934;2023-09-12T07:29:15;39.38;;;23.05;;
75358;SDS011;64046;51.978;5.934;2023-09-12T07:31:46;41.08;;;26.40;;
75358;SDS011;64046;51.978;5.934;2023-09-12T07:34:21;32.13;;;18.20;;
75358;SDS011;64046;51.978;5.934;2023-09-12T07:36:52;29.48;;;17.60;;
75358;SDS011;64046;51.978;5.934;2023-09-12T07:39:25;29.25;;;17.48;;
75358;SDS011;64046;51.978;5.934;2023-09-12T07:41:54;28.17;;;17.38;;
75358;SDS011;64046;51.978;5.934;2023-09-12T07:44:24;29.70;;;17.55;;
75358;SDS011;64046;51.978;5.934;2023-09-12T07:47:02;28.67;;;17.58;;
75358;SDS011;64046;51.978;5.934;2023-09-12T07:49:45;27.48;;;16.50;;
75358;SDS011;64046;51.978;5.934;2023-09-12T07:52:26;32.05;;;19.33;;
75358;SDS011;64046;51.978;5.934;2023-09-12T07:55:02;24.95;;;16.92;;
75358;SDS011;64046;51.978;5.934;2023-09-12T07:57:36;27.67;;;17.33;;
75358;SDS011;64046;51.978;5.934;2023-09-12T08:00:08;31.35;;;18.63;;
75358;SDS011;64046;51.978;5.934;2023-09-12T08:02:44;31.98;;;19.40;;
75358;SDS011;64046;51.978;5.934;2023-09-12T08:05:20;32.75;;;20.40;;
75358;SDS011;64046;51.978;5.934;2023-09-12T08:07:51;26.92;;;16.13;;
75358;SDS011;64046;51.978;5.934;2023-09-12T08:10:22;29.02;;;18.15;;
75358;SDS011;64046;51.978;5.934;2023-09-12T08:12:53;28.90;;;16.95;;
75358;SDS011;64046;51.978;5.934;2023-09-12T08:15:24;26.23;;;16.20;;
75358;SDS011;64046;51.978;5.934;2023-09-12T08:17:59;26.63;;;15.95;;
75358;SDS011;64046;51.978;5.934;2023-09-12T08:20:35;34.95;;;21.25;;
75358;SDS011;64046;51.978;5.934;2023-09-12T08:23:08;26.13;;;16.83;;
75358;SDS011;64046;51.978;5.934;2023-09-12T08:25:39;35.22;;;21.98;;
75358;SDS011;64046;51.978;5.934;2023-09-12T08:28:10;38.72;;;23.48;;
75358;SDS011;64046;51.978;5.934;2023-09-12T08:30:50;34.38;;;22.40;;
75358;SDS011;64046;51.978;5.934;2023-09-12T08:33:22;30.65;;;19.52;;
75358;SDS011;64046;51.978;5.934;2023-09-12T08:35:58;45.97;;;26.60;;
75358;SDS011;64046;51.978;5.934;2023-09-12T08:38:27;33.78;;;21.95;;
75358;SDS011;64046;51.978;5.934;2023-09-12T08:41:00;32.55;;;21.83;;
75358;SDS011;64046;51.978;5.934;2023-09-12T08:43:34;35.50;;;21.85;;
75358;SDS011;64046;51.978;5.934;2023-09-12T08:46:06;30.88;;;18.58;;
75358;SDS011;64046;51.978;5.934;2023-09-12T08:48:40;35.53;;;21.67;;
75358;SDS011;64046;51.978;5.934;2023-09-12T08:51:15;29.02;;;18.15;;
75358;SDS011;64046;51.978;5.934;2023-09-12T08:53:48;30.27;;;17.75;;
75358;SDS011;64046;51.978;5.934;2023-09-12T08:56:23;32.13;;;22.00;;
75358;SDS011;64046;51.978;5.934;2023-09-12T08:58:53;37.80;;;22.02;;
75358;SDS011;64046;51.978;5.934;2023-09-12T09:01:26;29.80;;;18.75;;
75358;SDS011;64046;51.978;5.934;2023-09-12T09:03:57;23.85;;;15.25;;
75358;SDS011;64046;51.978;5.934;2023-09-12T09:06:29;23.90;;;14.73;;
75358;SDS011;64046;51.978;5.934;2023-09-12T09:09:04;23.20;;;16.00;;
75358;SDS011;64046;51.978;5.934;2023-09-12T09:11:35;19.73;;;13.57;;
75358;SDS011;64046;51.978;5.934;2023-09-12T09:14:05;28.02;;;16.42;;
75358;SDS011;64046;51.978;5.934;2023-09-12T09:16:37;35.55;;;19.52;;
75358;SDS011;64046;51.978;5.934;2023-09-12T09:19:10;23.63;;;14.02;;
75358;SDS011;64046;51.978;5.934;2023-09-12T09:21:44;22.25;;;15.23;;
75358;SDS011;64046;51.978;5.934;2023-09-12T09:24:18;16.60;;;11.38;;
75358;SDS011;64046;51.978;5.934;2023-09-12T09:26:51;17.05;;;11.88;;
75358;SDS011;64046;51.978;5.934;2023-09-12T09:29:26;20.02;;;14.00;;
75358;SDS011;64046;51.978;5.934;2023-09-12T09:31:59;19.92;;;13.80;;
75358;SDS011;64046;51.978;5.934;2023-09-12T09:34:31;18.17;;;12.20;;
75358;SDS011;64046;51.978;5.934;2023-09-12T09:37:10;22.83;;;14.63;;
75358;SDS011;64046;51.978;5.934;2023-09-12T09:39:45;21.38;;;13.90;;
75358;SDS011;64046;51.978;5.934;2023-09-12T09:42:20;21.92;;;13.85;;
75358;SDS011;64046;51.978;5.934;2023-09-12T09:44:51;19.80;;;14.00;;
75358;SDS011;64046;51.978;5.934;2023-09-12T09:47:21;20.40;;;12.98;;
75358;SDS011;64046;51.978;5.934;2023-09-12T09:49:56;24.55;;;15.70;;
75358;SDS011;64046;51.978;5.934;2023-09-12T09:52:32;23.05;;;13.85;;
75358;SDS011;64046;51.978;5.934;2023-09-12T09:55:01;28.67;;;18.83;;
75358;SDS011;64046;51.978;5.934;2023-09-12T09:57:37;27.65;;;17.23;;
75358;SDS011;64046;51.978;5.934;2023-09-12T10:00:07;28.13;;;17.80;;
75358;SDS011;64046;51.978;5.934;2023-09-12T10:02:41;25.70;;;16.20;;
75358;SDS011;64046;51.978;5.934;2023-09-12T10:05:15;19.75;;;14.27;;
75358;SDS011;64046;51.978;5.934;2023-09-12T10:07:50;18.25;;;11.55;;
75358;SDS011;64046;51.978;5.934;2023-09-12T10:10:25;16.27;;;11.50;;
75358;SDS011;64046;51.978;5.934;2023-09-12T10:12:58;23.40;;;14.70;;
75358;SDS011;64046;51.978;5.934;2023-09-12T10:15:33;18.05;;;12.50;;
75358;SDS011;64046;51.978;5.934;2023-09-12T10:18:08;16.30;;;11.52;;
75358;SDS011;64046;51.978;5.934;2023-09-12T10:20:41;17.08;;;11.73;;
75358;SDS011;64046;51.978;5.934;2023-09-12T10:23:30;14.38;;;9.50;;
75358;SDS011;64046;51.978;5.934;2023-09-12T10:26:11;15.75;;;9.75;;
75358;SDS011;64046;51.978;5.934;2023-09-12T10:28:42;12.68;;;9.05;;
75358;SDS011;64046;51.978;5.934;2023-09-12T10:31:13;17.88;;;11.35;;
75358;SDS011;64046;51.978;5.934;2023-09-12T10:33:44;16.95;;;10.00;;
75358;SDS011;64046;51.978;5.934;2023-09-12T10:36:16;14.57;;;9.70;;
75358;SDS011;64046;51.978;5.934;2023-09-12T10:38:49;14.38;;;9.50;;
75358;SDS011;64046;51.978;5.934;2023-09-12T10:41:21;14.38;;;10.02;;
75358;SDS011;64046;51.978;5.934;2023-09-12T10:43:54;17.27;;;11.25;;
75358;SDS011;64046;51.978;5.934;2023-09-12T10:46:27;17.83;;;12.20;;
75358;SDS011;64046;51.978;5.934;2023-09-12T10:48:57;13.85;;;8.40;;
75358;SDS011;64046;51.978;5.934;2023-09-12T10:51:28;13.32;;;9.18;;
75358;SDS011;64046;51.978;5.934;2023-09-12T10:54:01;11.35;;;8.27;;
75358;SDS011;64046;51.978;5.934;2023-09-12T10:56:31;11.88;;;8.30;;
75358;SDS011;64046;51.978;5.934;2023-09-12T10:59:13;15.57;;;10.27;;
75358;SDS011;64046;51.978;5.934;2023-09-12T11:01:54;13.38;;;8.45;;
75358;SDS011;64046;51.978;5.934;2023-09-12T11:04:32;15.85;;;10.90;;
75358;SDS011;64046;51.978;5.934;2023-09-12T11:10:18;15.30;;;9.85;;
75358;SDS011;64046;51.978;5.934;2023-09-12T11:12:52;12.48;;;8.45;;
75358;SDS011;64046;51.978;5.934;2023-09-12T11:15:27;11.15;;;7.57;;
75358;SDS011;64046;51.978;5.934;2023-09-12T11:18:01;13.63;;;9.50;;
75358;SDS011;64046;51.978;5.934;2023-09-12T11:23:24;15.63;;;9.13;;
75358;SDS011;64046;51.978;5.934;2023-09-12T11:26:05;16.08;;;9.95;;
75358;SDS011;64046;51.978;5.934;2023-09-12T11:28:38;11.45;;;8.23;;
75358;SDS011;64046;51.978;5.934;2023-09-12T11:31:10;10.82;;;7.32;;
75358;SDS011;64046;51.978;5.934;2023-09-12T11:33:40;11.05;;;6.75;;
75358;SDS011;64046;51.978;5.934;2023-09-12T11:36:12;9.38;;;6.53;;
75358;SDS011;64046;51.978;5.934;2023-09-12T11:38:51;9.35;;;6.00;;
75358;SDS011;64046;51.978;5.934;2023-09-12T11:44:11;6.60;;;4.60;;
75358;SDS011;64046;51.978;5.934;2023-09-12T11:46:41;11.57;;;6.22;;
75358;SDS011;64046;51.978;5.934;2023-09-12T11:49:12;11.82;;;7.80;;
75358;SDS011;64046;51.978;5.934;2023-09-12T11:51:52;11.43;;;6.53;;
75358;SDS011;64046;51.978;5.934;2023-09-12T11:54:24;10.88;;;7.25;;
75358;SDS011;64046;51.978;5.934;2023-09-12T11:57:01;11.07;;;6.95;;
75358;SDS011;64046;51.978;5.934;2023-09-12T11:59:36;8.27;;;5.85;;
75358;SDS011;64046;51.978;5.934;2023-09-12T12:02:07;9.95;;;6.30;;
75358;SDS011;64046;51.978;5.934;2023-09-12T12:04:39;8.13;;;4.85;;
75358;SDS011;64046;51.978;5.934;2023-09-12T12:07:09;6.82;;;4.50;;
75358;SDS011;64046;51.978;5.934;2023-09-12T12:09:43;9.10;;;4.35;;
75358;SDS011;64046;51.978;5.934;2023-09-12T12:12:16;8.85;;;5.15;;
75358;SDS011;64046;51.978;5.934;2023-09-12T12:14:50;11.10;;;5.65;;
75358;SDS011;64046;51.978;5.934;2023-09-12T12:17:19;10.10;;;6.00;;
75358;SDS011;64046;51.978;5.934;2023-09-12T12:19:50;11.93;;;7.22;;
75358;SDS011;64046;51.978;5.934;2023-09-12T12:22:20;7.38;;;5.47;;
75358;SDS011;64046;51.978;5.934;2023-09-12T12:24:49;10.75;;;5.28;;
75358;SDS011;64046;51.978;5.934;2023-09-12T12:27:30;9.52;;;4.78;;
75358;SDS011;64046;51.978;5.934;2023-09-12T12:30:01;9.15;;;5.40;;
75358;SDS011;64046;51.978;5.934;2023-09-12T12:32:30;7.07;;;4.20;;
75358;SDS011;64046;51.978;5.934;2023-09-12T12:35:00;7.85;;;4.03;;
75358;SDS011;64046;51.978;5.934;2023-09-12T12:37:31;8.18;;;3.90;;
75358;SDS011;64046;51.978;5.934;2023-09-12T12:40:06;11.68;;;5.50;;
75358;SDS011;64046;51.978;5.934;2023-09-12T12:42:45;7.88;;;5.05;;
75358;SDS011;64046;51.978;5.934;2023-09-12T12:45:15;7.60;;;4.47;;
75358;SDS011;64046;51.978;5.934;2023-09-12T12:47:46;5.72;;;4.47;;
75358;SDS011;64046;51.978;5.934;2023-09-12T12:50:20;6.63;;;3.65;;
75358;SDS011;64046;51.978;5.934;2023-09-12T12:52:50;7.25;;;4.05;;
75358;SDS011;64046;51.978;5.934;2023-09-12T12:55:21;5.20;;;3.40;;
75358;SDS011;64046;51.978;5.934;2023-09-12T12:57:58;5.97;;;3.72;;
75358;SDS011;64046;51.978;5.934;2023-09-12T13:00:29;7.05;;;3.92;;
75358;SDS011;64046;51.978;5.934;2023-09-12T13:02:59;5.35;;;4.07;;
75358;SDS011;64046;51.978;5.934;2023-09-12T13:05:29;7.03;;;4.32;;
75358;SDS011;64046;51.978;5.934;2023-09-12T13:07:59;7.80;;;4.53;;
75358;SDS011;64046;51.978;5.934;2023-09-12T13:10:30;6.18;;;3.75;;
75358;SDS011;64046;51.978;5.934;2023-09-12T13:13:02;10.38;;;3.17;;
75358;SDS011;64046;51.978;5.934;2023-09-12T13:15:34;6.53;;;3.08;;
75358;SDS011;64046;51.978;5.934;2023-09-12T13:18:04;4.22;;;3.10;;
75358;SDS011;64046;51.978;5.934;2023-09-12T13:20:34;5.03;;;3.80;;
75358;SDS011;64046;51.978;5.934;2023-09-12T13:23:05;9.90;;;5.53;;
75358;SDS011;64046;51.978;5.934;2023-09-12T13:25:37;6.18;;;4.50;;
75358;SDS011;64046;51.978;5.934;2023-09-12T13:28:18;9.77;;;5.80;;
75358;SDS011;64046;51.978;5.934;2023-09-12T13:30:49;6.93;;;4.97;;
75358;SDS011;64046;51.978;5.934;2023-09-12T13:33:20;8.65;;;5.07;;
75358;SDS011;64046;51.978;5.934;2023-09-12T13:35:49;6.28;;;4.50;;
75358;SDS011;64046;51.978;5.934;2023-09-12T13:38:19;8.02;;;5.45;;
75358;SDS011;64046;51.978;5.934;2023-09-12T13:40:49;8.85;;;5.60;;
75358;SDS011;64046;51.978;5.934;2023-09-12T13:43:21;10.27;;;5.07;;
75358;SDS011;64046;51.978;5.934;2023-09-12T13:45:57;7.50;;;4.95;;
75358;SDS011;64046;51.978;5.934;2023-09-12T13:48:29;11.13;;;5.57;;
75358;SDS011;64046;51.978;5.934;2023-09-12T13:51:03;10.05;;;6.10;;
75358;SDS011;64046;51.978;5.934;2023-09-12T13:53:34;14.50;;;6.03;;
75358;SDS011;64046;51.978;5.934;2023-09-12T13:56:05;10.30;;;6.40;;
75358;SDS011;64046;51.978;5.934;2023-09-12T13:58:38;11.68;;;6.45;;
75358;SDS011;64046;51.978;5.934;2023-09-12T14:01:07;8.02;;;4.70;;
75358;SDS011;64046;51.978;5.934;2023-09-12T14:03:37;9.90;;;5.93;;
75358;SDS011;64046;51.978;5.934;2023-09-12T14:06:09;12.35;;;5.75;;
75358;SDS011;64046;51.978;5.934;2023-09-12T14:08:40;6.63;;;4.88;;
75358;SDS011;64046;51.978;5.934;2023-09-12T14:11:10;9.57;;;5.97;;
75358;SDS011;64046;51.978;5.934;2023-09-12T14:13:43;9.15;;;6.13;;
75358;SDS011;64046;51.978;5.934;2023-09-12T14:16:13;9.93;;;6.25;;
75358;SDS011;64046;51.978;5.934;2023-09-12T14:18:45;10.63;;;5.65;;
75358;SDS011;64046;51.978;5.934;2023-09-12T14:21:16;10.90;;;5.60;;
75358;SDS011;64046;51.978;5.934;2023-09-12T14:23:47;5.95;;;3.75;;
75358;SDS011;64046;51.978;5.934;2023-09-12T14:26:20;6.75;;;4.63;;
75358;SDS011;64046;51.978;5.934;2023-09-12T14:28:52;6.22;;;4.65;;
75358;SDS011;64046;51.978;5.934;2023-09-12T14:31:22;8.63;;;4.38;;
75358;SDS011;64046;51.978;5.934;2023-09-12T14:33:52;8.15;;;4.40;;
75358;SDS011;64046;51.978;5.934;2023-09-12T14:36:24;7.40;;;4.38;;
75358;SDS011;64046;51.978;5.934;2023-09-12T14:38:54;6.32;;;4.45;;
75358;SDS011;64046;51.978;5.934;2023-09-12T14:41:26;7.38;;;5.10;;
75358;SDS011;64046;51.978;5.934;2023-09-12T14:43:58;7.13;;;5.10;;
75358;SDS011;64046;51.978;5.934;2023-09-12T14:46:29;10.45;;;5.47;;
75358;SDS011;64046;51.978;5.934;2023-09-12T14:48:58;8.20;;;5.78;;
75358;SDS011;64046;51.978;5.934;2023-09-12T14:51:30;7.18;;;5.50;;
75358;SDS011;64046;51.978;5.934;2023-09-12T14:54:02;7.75;;;5.43;;
75358;SDS011;64046;51.978;5.934;2023-09-12T14:56:33;6.93;;;5.15;;
75358;SDS011;64046;51.978;5.934;2023-09-12T14:59:07;9.10;;;5.50;;
75358;SDS011;64046;51.978;5.934;2023-09-12T15:01:37;6.57;;;5.32;;
75358;SDS011;64046;51.978;5.934;2023-09-12T15:04:14;9.20;;;5.88;;
75358;SDS011;64046;51.978;5.934;2023-09-12T15:06:43;6.78;;;4.05;;
75358;SDS011;64046;51.978;5.934;2023-09-12T15:09:13;8.18;;;4.93;;
75358;SDS011;64046;51.978;5.934;2023-09-12T15:11:42;8.93;;;4.97;;
75358;SDS011;64046;51.978;5.934;2023-09-12T15:14:14;7.18;;;5.10;;
75358;SDS011;64046;51.978;5.934;2023-09-12T15:16:48;11.00;;;5.03;;